Cap Bonavista — A8CH8 — position and weather

sailwx.info

Track history (hours):
 
Tides and Currents Weather Stations Pressure Air Temp Water Temp Dewpoint Dewpoint Depression Visibility Wind Speed Wind Dir Waves Ship Positions

Cap Bonavista

Last reported at 2015-May-19 01:33 UTC. Time now 2015-May-22 09:56 UTC.
Position N 09°18' W 013°45'.

Length 200 m; beam 29.8 m; draft 11.6 m.

Type: Cargo ship. MMSI: 636090647.

Date/timePositionNaut miles runAvg speedWind from/ knotsBaromVisibWave heightAir tempDewpointWater temp
2015-May-19 01:33N 09°18' W 013°45'1010.5
2015-May-19 00:34N 09°29' W 013°44'2 1.8
2015-May-18 23:33N 09°31' W 013°43'0 0.0
2015-May-18 22:33N 09°31' W 013°43'0 0.0
2015-May-18 21:33N 09°31' W 013°43'0 0.0
2015-May-18 20:33N 09°31' W 013°43'0 0.0
2015-May-18 19:33N 09°31' W 013°43'0 0.0
2015-May-18 18:33N 09°31' W 013°43'0 0.0
2015-May-18 17:33N 09°31' W 013°43'0 0.0
2015-May-18 16:33N 09°31' W 013°43'0 0.0
2015-May-18 15:33N 09°31' W 013°43'0 0.0
2015-May-18 14:33N 09°31' W 013°43'0 0.0
2015-May-18 13:33N 09°31' W 013°43'0 0.0
2015-May-18 12:33N 09°31' W 013°43'0 0.0
2015-May-18 11:33N 09°31' W 013°43'0 0.0
2015-May-18 10:33N 09°31' W 013°43'0 0.0
2015-May-18 09:33N 09°31' W 013°43'0 0.0
2015-May-18 08:33N 09°31' W 013°43'0 0.0
2015-May-18 07:33N 09°31' W 013°43'0 0.0
2015-May-18 06:33N 09°31' W 013°43'0 0.0
2015-May-18 05:33N 09°31' W 013°43'0 0.0
2015-May-18 04:33N 09°31' W 013°43'0 0.0
2015-May-18 03:33N 09°31' W 013°43'0 0.0
2015-May-18 02:33N 09°31' W 013°43'0 0.0
2015-May-18 01:33N 09°31' W 013°43'0 0.0
2015-May-18 00:33N 09°31' W 013°43'0 0.0
2015-May-17 23:33N 09°31' W 013°43'0 0.0
2015-May-17 22:33N 09°31' W 013°43'0 0.0
2015-May-17 21:33N 09°31' W 013°43'0 0.0
2015-May-17 20:33N 09°31' W 013°43'0 0.0
2015-May-17 19:33N 09°31' W 013°43'0 0.0
2015-May-17 18:33N 09°31' W 013°43'0 0.0
2015-May-17 17:33N 09°31' W 013°43'0 0.0
2015-May-17 16:33N 09°31' W 013°43'0 0.0
2015-May-17 15:33N 09°31' W 013°43'0 0.0
2015-May-17 14:33N 09°31' W 013°43'0 0.0
2015-May-17 13:33N 09°31' W 013°43'0 0.0
2015-May-17 12:30N 09°31' W 013°43'0 0.0
2015-May-17 11:33N 09°31' W 013°43'0 0.0
2015-May-17 10:33N 09°31' W 013°43'0 0.0
2015-May-17 09:33N 09°31' W 013°43'0 0.0
2015-May-17 08:33N 09°31' W 013°43'0 0.0
2015-May-17 07:33N 09°31' W 013°43'3 3.4
2015-May-17 06:33N 09°27' W 013°44'8 7.9
2015-May-17 05:33N 09°19' W 013°45'18 1.7
2015-May-16 19:28N 09°06' W 013°57'1414.5
2015-May-16 18:29N 09°10' W 014°11'  
2015-May-12 00:08N 28°41' W 013°23'12412.6
2015-May-11 14:13N 30°23' W 012°03'912.8
2015-May-11 13:33N 30°30' W 011°57'1312.8
2015-May-11 12:31N 30°41' W 011°47'18412.9
2015-May-10 22:15N 33°01' W 009°28'8312.3
2015-May-10 15:33N 33°59' W 008°18'17911.2
2015-May-09 23:33N 35°58' W 005°34'8 8.5
2015-May-09 22:33N 36°02' W 005°25'7 6.6
2015-May-09 21:34N 36°08' W 005°26'0 0.1
2015-May-09 20:31N 36°08' W 005°26'0 0.0
2015-May-09 19:31N 36°08' W 005°26'0 0.0
2015-May-09 18:28N 36°08' W 005°26'0 0.0
2015-May-09 17:30N 36°08' W 005°26'0 0.0
2015-May-09 16:33N 36°08' W 005°26'0 0.0
2015-May-09 15:21N 36°08' W 005°26'0 0.0
2015-May-09 14:33N 36°08' W 005°26'0 0.0
2015-May-09 13:31N 36°08' W 005°26'0 0.0
2015-May-09 12:31N 36°08' W 005°26'0 0.0
2015-May-09 11:28N 36°08' W 005°26'0 0.0
2015-May-09 10:31N 36°08' W 005°26'0 0.0
2015-May-09 09:31N 36°08' W 005°26'0 0.0
2015-May-09 08:31N 36°08' W 005°26'0 0.0
2015-May-09 07:31N 36°08' W 005°26'0 0.0
2015-May-09 06:31N 36°08' W 005°26'0 0.0
2015-May-09 05:28N 36°08' W 005°26'1 0.4
2015-May-09 02:15N 36°09' W 005°25'  
Track history (hours):
 
Tides and Currents Weather Stations Pressure Air Temp Water Temp Dewpoint Dewpoint Depression Visibility Wind Speed Wind Dir Waves Ship Positions

Cap Bonavista

Last reported at 2015-May-19 01:33 UTC. Time now 2015-May-22 09:56 UTC.
Position N 09°18' W 013°45'.

Length 200 m; beam 29.8 m; draft 11.6 m.

Type: Cargo ship. MMSI: 636090647.

Date/timePositionNaut miles runAvg speedWind from/ knotsBaromVisibWave heightAir tempDewpointWater temp
2015-May-19 01:33N 09°18' W 013°45'1010.5
2015-May-19 00:34N 09°29' W 013°44'2 1.8
2015-May-18 23:33N 09°31' W 013°43'0 0.0
2015-May-18 22:33N 09°31' W 013°43'0 0.0
2015-May-18 21:33N 09°31' W 013°43'0 0.0
2015-May-18 20:33N 09°31' W 013°43'0 0.0
2015-May-18 19:33N 09°31' W 013°43'0 0.0
2015-May-18 18:33N 09°31' W 013°43'0 0.0
2015-May-18 17:33N 09°31' W 013°43'0 0.0
2015-May-18 16:33N 09°31' W 013°43'0 0.0
2015-May-18 15:33N 09°31' W 013°43'0 0.0
2015-May-18 14:33N 09°31' W 013°43'0 0.0
2015-May-18 13:33N 09°31' W 013°43'0 0.0
2015-May-18 12:33N 09°31' W 013°43'0 0.0
2015-May-18 11:33N 09°31' W 013°43'0 0.0
2015-May-18 10:33N 09°31' W 013°43'0 0.0
2015-May-18 09:33N 09°31' W 013°43'0 0.0
2015-May-18 08:33N 09°31' W 013°43'0 0.0
2015-May-18 07:33N 09°31' W 013°43'0 0.0
2015-May-18 06:33N 09°31' W 013°43'0 0.0
2015-May-18 05:33N 09°31' W 013°43'0 0.0
2015-May-18 04:33N 09°31' W 013°43'0 0.0
2015-May-18 03:33N 09°31' W 013°43'0 0.0
2015-May-18 02:33N 09°31' W 013°43'0 0.0
2015-May-18 01:33N 09°31' W 013°43'0 0.0
2015-May-18 00:33N 09°31' W 013°43'0 0.0
2015-May-17 23:33N 09°31' W 013°43'0 0.0
2015-May-17 22:33N 09°31' W 013°43'0 0.0
2015-May-17 21:33N 09°31' W 013°43'0 0.0
2015-May-17 20:33N 09°31' W 013°43'0 0.0
2015-May-17 19:33N 09°31' W 013°43'0 0.0
2015-May-17 18:33N 09°31' W 013°43'0 0.0
2015-May-17 17:33N 09°31' W 013°43'0 0.0
2015-May-17 16:33N 09°31' W 013°43'0 0.0
2015-May-17 15:33N 09°31' W 013°43'0 0.0
2015-May-17 14:33N 09°31' W 013°43'0 0.0
2015-May-17 13:33N 09°31' W 013°43'0 0.0
2015-May-17 12:30N 09°31' W 013°43'0 0.0
2015-May-17 11:33N 09°31' W 013°43'0 0.0
2015-May-17 10:33N 09°31' W 013°43'0 0.0
2015-May-17 09:33N 09°31' W 013°43'0 0.0
2015-May-17 08:33N 09°31' W 013°43'0 0.0
2015-May-17 07:33N 09°31' W 013°43'3 3.4
2015-May-17 06:33N 09°27' W 013°44'8 7.9
2015-May-17 05:33N 09°19' W 013°45'18 1.7
2015-May-16 19:28N 09°06' W 013°57'1414.5
2015-May-16 18:29N 09°10' W 014°11'  
2015-May-12 00:08N 28°41' W 013°23'12412.6
2015-May-11 14:13N 30°23' W 012°03'912.8
2015-May-11 13:33N 30°30' W 011°57'1312.8
2015-May-11 12:31N 30°41' W 011°47'18412.9
2015-May-10 22:15N 33°01' W 009°28'8312.3
2015-May-10 15:33N 33°59' W 008°18'17911.2
2015-May-09 23:33N 35°58' W 005°34'8 8.5
2015-May-09 22:33N 36°02' W 005°25'7 6.6
2015-May-09 21:34N 36°08' W 005°26'0 0.1
2015-May-09 20:31N 36°08' W 005°26'0 0.0
2015-May-09 19:31N 36°08' W 005°26'0 0.0
2015-May-09 18:28N 36°08' W 005°26'0 0.0
2015-May-09 17:30N 36°08' W 005°26'0 0.0
2015-May-09 16:33N 36°08' W 005°26'0 0.0
2015-May-09 15:21N 36°08' W 005°26'0 0.0
2015-May-09 14:33N 36°08' W 005°26'0 0.0
2015-May-09 13:31N 36°08' W 005°26'0 0.0
2015-May-09 12:31N 36°08' W 005°26'0 0.0
2015-May-09 11:28N 36°08' W 005°26'0 0.0
2015-May-09 10:31N 36°08' W 005°26'0 0.0
2015-May-09 09:31N 36°08' W 005°26'0 0.0
2015-May-09 08:31N 36°08' W 005°26'0 0.0
2015-May-09 07:31N 36°08' W 005°26'0 0.0
2015-May-09 06:31N 36°08' W 005°26'0 0.0
2015-May-09 05:28N 36°08' W 005°26'1 0.4
2015-May-09 02:15N 36°09' W 005°25'  

Dump ship's entire track history